createdAt,value
2018-08-25T00:04:30.122Z,40.80
2018-08-25T00:09:33.451Z,40.90
2018-08-25T00:14:36.784Z,41.00
2018-08-25T00:19:40.089Z,41.10
2018-08-25T00:24:44.481Z,41.10
2018-08-25T00:29:47.729Z,41.10
2018-08-25T00:34:50.970Z,41.20
2018-08-25T00:39:54.190Z,41.20
2018-08-25T00:44:57.390Z,41.30
2018-08-25T00:50:00.710Z,41.30
2018-08-25T00:55:04.185Z,41.30
2018-08-25T01:00:07.411Z,41.40
2018-08-25T01:05:10.683Z,41.40
2018-08-25T01:10:13.925Z,41.50
2018-08-25T01:15:17.105Z,41.50
2018-08-25T01:20:20.510Z,41.60
2018-08-25T01:25:23.717Z,41.60
2018-08-25T01:30:26.903Z,41.60
2018-08-25T01:35:30.444Z,41.70
2018-08-25T01:40:33.654Z,41.60
2018-08-25T01:45:36.841Z,41.70
2018-08-25T01:50:40.079Z,41.60
2018-08-25T01:55:43.660Z,41.70
2018-08-25T02:00:46.861Z,41.70
2018-08-25T02:05:50.335Z,41.80
2018-08-25T02:10:53.546Z,41.80
2018-08-25T02:15:57.218Z,41.80
2018-08-25T02:21:00.409Z,41.80
2018-08-25T02:26:03.584Z,41.80
2018-08-25T02:31:06.777Z,41.90
2018-08-25T02:36:09.988Z,41.90
2018-08-25T02:41:13.154Z,41.90
2018-08-25T02:46:16.423Z,42.00
2018-08-25T02:51:19.739Z,42.60
2018-08-25T02:56:23.137Z,42.00
2018-08-25T03:01:26.404Z,42.00
2018-08-25T03:06:29.916Z,42.10
2018-08-25T03:11:33.107Z,42.10
2018-08-25T03:16:36.828Z,42.10
2018-08-25T03:21:40.069Z,42.20
2018-08-25T03:26:43.338Z,42.20
2018-08-25T03:31:46.557Z,42.20
2018-08-25T03:36:49.790Z,42.20
2018-08-25T03:41:53.078Z,42.30
2018-08-25T03:46:56.294Z,42.30
2018-08-25T03:51:59.516Z,42.30
2018-08-25T03:57:02.898Z,42.40
2018-08-25T04:02:06.208Z,42.40
2018-08-25T04:07:09.882Z,42.50
2018-08-25T04:12:13.182Z,42.50
2018-08-25T04:17:16.443Z,42.50
2018-08-25T04:22:20.022Z,42.50
2018-08-25T04:27:23.223Z,42.60
2018-08-25T04:32:26.828Z,42.70
2018-08-25T04:37:31.562Z,43.20
2018-08-25T04:42:34.834Z,42.70
2018-08-25T04:47:38.081Z,42.70
2018-08-25T04:52:41.866Z,42.70
2018-08-25T04:57:45.085Z,42.70
2018-08-25T05:02:48.305Z,42.70
2018-08-25T05:07:51.580Z,42.70
2018-08-25T05:12:54.948Z,42.70
2018-08-25T05:17:58.219Z,42.70
2018-08-25T05:23:01.396Z,42.70
2018-08-25T05:28:05.420Z,42.70
2018-08-25T05:33:08.737Z,42.70
2018-08-25T05:38:12.318Z,42.80
2018-08-25T05:43:16.133Z,42.80
2018-08-25T05:48:19.380Z,42.80
2018-08-25T05:53:22.597Z,42.80
2018-08-25T05:58:26.235Z,42.80
2018-08-25T06:03:29.500Z,42.70
2018-08-25T06:08:32.935Z,42.80
2018-08-25T06:13:36.402Z,42.80
2018-08-25T06:18:39.594Z,42.80
2018-08-25T06:23:43.013Z,42.80
2018-08-25T06:28:47.417Z,42.80
2018-08-25T06:33:50.737Z,42.80
2018-08-25T06:38:53.983Z,42.80
2018-08-25T06:43:57.211Z,42.70
2018-08-25T06:49:00.971Z,42.70
2018-08-25T06:54:04.989Z,42.60
2018-08-25T06:59:08.460Z,42.60
2018-08-25T07:04:11.738Z,42.60
2018-08-25T07:09:14.983Z,42.60
2018-08-25T07:14:18.350Z,43.40
2018-08-25T07:19:21.674Z,42.70
2018-08-25T07:24:24.878Z,42.70
2018-08-25T07:29:28.195Z,42.70
2018-08-25T07:34:31.440Z,42.60
2018-08-25T07:39:34.975Z,42.50
2018-08-25T07:44:38.157Z,42.50
2018-08-25T07:49:41.596Z,42.50
2018-08-25T07:54:45.721Z,42.50
2018-08-25T07:59:49.115Z,42.50
2018-08-25T08:04:52.847Z,42.60
2018-08-25T08:09:56.665Z,42.60
2018-08-25T08:15:00.634Z,42.60
2018-08-25T08:20:04.357Z,42.60
2018-08-25T08:25:07.834Z,42.60
2018-08-25T08:30:11.377Z,42.60
2018-08-25T08:35:14.964Z,42.60
2018-08-25T08:40:18.837Z,42.50
2018-08-25T08:45:22.475Z,43.20
2018-08-25T08:50:26.038Z,42.50
2018-08-25T08:55:29.431Z,42.60
2018-08-25T09:00:32.859Z,42.60
2018-08-25T09:05:36.484Z,42.70
2018-08-25T09:10:39.701Z,42.60
2018-08-25T09:15:43.370Z,42.50
2018-08-25T09:20:46.621Z,42.50
2018-08-25T09:25:49.919Z,42.40
2018-08-25T09:30:53.768Z,42.70
2018-08-25T09:35:57.267Z,42.40
2018-08-25T09:41:01.158Z,42.30
2018-08-25T09:46:04.838Z,42.30
2018-08-25T09:51:08.518Z,42.10
2018-08-25T09:56:11.853Z,42.10
2018-08-25T10:01:20.468Z,42.10
2018-08-25T10:06:24.134Z,42.10
2018-08-25T10:11:27.500Z,42.00
2018-08-25T10:16:31.129Z,42.00
2018-08-25T10:21:35.990Z,42.10
2018-08-25T10:26:39.469Z,42.00
2018-08-25T10:31:42.970Z,42.00
2018-08-25T10:36:46.204Z,42.00
2018-08-25T10:41:49.835Z,41.90
2018-08-25T10:46:54.226Z,41.90
2018-08-25T10:51:57.741Z,41.90
2018-08-25T10:57:01.941Z,41.80
2018-08-25T11:02:05.487Z,42.10
2018-08-25T11:07:09.225Z,42.10
2018-08-25T11:12:13.026Z,42.20
2018-08-25T11:17:16.859Z,42.20
2018-08-25T11:22:20.203Z,42.20
2018-08-25T11:27:30.556Z,42.20
2018-08-25T11:32:34.055Z,42.00
2018-08-25T11:37:37.450Z,42.00
2018-08-25T11:42:41.103Z,42.00
2018-08-25T11:47:44.524Z,42.10
2018-08-25T11:52:47.968Z,41.90
2018-08-25T11:57:51.525Z,42.00
2018-08-25T12:02:56.147Z,41.90
2018-08-25T12:08:00.122Z,41.80
2018-08-25T12:13:03.762Z,41.70
2018-08-25T12:18:07.804Z,42.30
2018-08-25T12:23:11.166Z,41.70
2018-08-25T12:28:14.692Z,41.70
2018-08-25T12:33:18.856Z,41.70
2018-08-25T12:38:22.168Z,41.70
2018-08-25T12:43:25.624Z,41.90
2018-08-25T12:48:29.098Z,42.00
2018-08-25T12:53:32.709Z,41.90
2018-08-25T12:58:36.098Z,41.90
2018-08-25T13:03:39.845Z,42.00
2018-08-25T13:08:44.134Z,42.00
2018-08-25T13:13:47.925Z,42.10
2018-08-25T13:18:51.684Z,42.20
2018-08-25T13:23:55.840Z,42.10
2018-08-25T13:28:59.494Z,42.40
2018-08-25T13:34:03.078Z,41.40
2018-08-25T13:39:08.936Z,40.30
2018-08-25T13:44:13.190Z,40.80
2018-08-25T13:49:16.404Z,40.80
2018-08-25T13:54:19.692Z,41.30
2018-08-25T13:59:22.939Z,42.30
2018-08-25T14:04:26.373Z,42.30
2018-08-25T14:09:29.704Z,41.80
2018-08-25T14:14:33.162Z,42.00
2018-08-25T14:19:36.879Z,41.70
2018-08-25T14:24:40.516Z,41.60
2018-08-25T14:29:44.879Z,41.60
2018-08-25T14:34:48.144Z,41.50
2018-08-25T14:39:52.202Z,41.50
2018-08-25T14:44:55.583Z,41.60
2018-08-25T14:49:58.826Z,41.60
2018-08-25T14:55:02.390Z,41.50
2018-08-25T15:00:06.153Z,41.50
2018-08-25T15:05:09.387Z,41.50
2018-08-25T15:10:12.704Z,41.50
2018-08-25T15:15:16.309Z,41.50
2018-08-25T15:20:20.446Z,41.50
2018-08-25T15:25:23.710Z,41.60
2018-08-25T15:30:27.589Z,41.80
2018-08-25T15:35:31.546Z,42.00
2018-08-25T15:40:34.989Z,42.00
2018-08-25T15:45:38.547Z,42.10
2018-08-25T15:50:43.227Z,42.10
2018-08-25T15:55:46.682Z,42.10
2018-08-25T16:00:50.401Z,41.80
2018-08-25T16:05:54.085Z,41.60
2018-08-25T16:10:58.307Z,41.00
2018-08-25T16:16:02.544Z,40.60
2018-08-25T16:21:06.223Z,40.50
2018-08-25T16:26:11.188Z,40.40
2018-08-25T16:31:15.609Z,40.60
2018-08-25T16:36:19.058Z,40.80
2018-08-25T16:41:23.508Z,40.70
2018-08-25T16:46:27.128Z,40.60
2018-08-25T16:51:31.513Z,40.50
2018-08-25T16:56:35.211Z,40.50
2018-08-25T17:01:38.457Z,40.30
2018-08-25T17:06:42.074Z,40.30
2018-08-25T17:11:45.370Z,40.30
2018-08-25T17:16:49.094Z,40.30
2018-08-25T17:21:52.362Z,40.20
2018-08-25T17:26:55.960Z,40.20
2018-08-25T17:31:59.596Z,40.00
2018-08-25T17:37:03.406Z,39.90
2018-08-25T17:42:06.930Z,39.80
2018-08-25T17:47:10.487Z,39.70
2018-08-25T17:52:13.935Z,39.70
2018-08-25T17:57:17.304Z,39.70
2018-08-25T18:02:20.996Z,39.60
2018-08-25T18:07:24.471Z,39.60
2018-08-25T18:12:28.722Z,39.60
2018-08-25T18:17:32.158Z,39.50
2018-08-25T18:22:35.505Z,39.40
2018-08-25T18:27:39.558Z,39.50
2018-08-25T18:32:42.834Z,39.60
2018-08-25T18:37:46.410Z,39.40
2018-08-25T18:42:49.966Z,40.00
2018-08-25T18:47:53.410Z,39.50
2018-08-25T18:52:57.058Z,39.40
2018-08-25T18:58:01.429Z,39.40
2018-08-25T19:03:05.176Z,39.50
2018-08-25T19:08:08.746Z,39.50
2018-08-25T19:13:13.228Z,39.50
2018-08-25T19:18:16.777Z,39.50
2018-08-25T19:23:21.039Z,39.50
2018-08-25T19:28:31.212Z,39.50
2018-08-25T19:33:34.662Z,39.70
2018-08-25T19:38:38.815Z,39.60
2018-08-25T19:43:44.766Z,39.70
2018-08-25T19:48:48.609Z,39.70
2018-08-25T19:53:52.596Z,39.60
2018-08-25T19:58:56.713Z,39.60
2018-08-25T20:04:01.303Z,39.70
2018-08-25T20:09:06.613Z,39.70
2018-08-25T20:14:10.521Z,39.80
2018-08-25T20:19:14.430Z,39.40
2018-08-25T20:24:17.821Z,38.20
2018-08-25T20:29:21.274Z,39.00
2018-08-25T20:34:25.956Z,37.60
2018-08-25T20:39:29.454Z,37.80
2018-08-25T20:44:35.135Z,37.70
2018-08-25T20:49:38.735Z,37.40
2018-08-25T20:54:42.301Z,37.30
2018-08-25T20:59:45.820Z,37.50
2018-08-25T21:04:49.942Z,37.70
2018-08-25T21:09:53.879Z,37.70
2018-08-25T21:14:58.113Z,37.70
2018-08-25T21:20:02.431Z,37.60
2018-08-25T21:25:06.991Z,38.00
2018-08-25T21:30:11.134Z,38.20
2018-08-25T21:35:15.337Z,38.10
2018-08-25T21:40:18.915Z,38.00
2018-08-25T21:45:22.206Z,38.00
2018-08-25T21:50:25.558Z,38.20
2018-08-25T21:55:29.089Z,38.00
2018-08-25T22:00:32.566Z,38.10
2018-08-25T22:05:36.435Z,38.30
2018-08-25T22:10:39.880Z,38.40
2018-08-25T22:15:43.687Z,38.30
2018-08-25T22:20:46.995Z,38.20
2018-08-25T22:25:51.260Z,38.20
2018-08-25T22:30:54.731Z,38.00
2018-08-25T22:35:57.987Z,38.10
2018-08-25T22:41:01.265Z,38.00
2018-08-25T22:46:04.845Z,37.80
2018-08-25T22:51:08.456Z,37.60
2018-08-25T22:56:11.699Z,38.50
2018-08-25T23:01:14.963Z,39.10
2018-08-25T23:06:18.316Z,39.30
2018-08-25T23:11:21.524Z,39.50
2018-08-25T23:16:25.011Z,39.70
2018-08-25T23:21:28.319Z,39.80
2018-08-25T23:26:32.411Z,39.80
2018-08-25T23:31:35.660Z,40.00
2018-08-25T23:36:39.116Z,40.00
2018-08-25T23:41:42.709Z,40.10
2018-08-25T23:46:46.204Z,40.00
2018-08-25T23:51:50.207Z,40.00
2018-08-25T23:56:53.668Z,40.10
